createdAt,value
2023-05-12T00:01:39.309Z,37.83
2023-05-12T00:04:10.014Z,37.88
2023-05-12T00:06:40.566Z,37.92
2023-05-12T00:09:11.030Z,37.94
2023-05-12T00:11:41.552Z,38.01
2023-05-12T00:14:12.035Z,38.05
2023-05-12T00:16:42.645Z,38.15
2023-05-12T00:19:13.123Z,38.16
2023-05-12T00:21:43.667Z,38.11
2023-05-12T00:24:14.094Z,38.17
2023-05-12T00:26:44.544Z,38.31
2023-05-12T00:29:15.028Z,38.53
2023-05-12T00:31:46.063Z,38.46
2023-05-12T00:34:16.534Z,38.45
2023-05-12T00:36:46.999Z,38.44
2023-05-12T00:39:17.861Z,38.57
2023-05-12T00:41:50.213Z,38.67
2023-05-12T00:44:20.764Z,38.70
2023-05-12T00:46:51.675Z,38.78
2023-05-12T00:49:22.715Z,38.79
2023-05-12T00:51:54.272Z,38.86
2023-05-12T00:54:26.079Z,38.81
2023-05-12T00:56:55.058Z,38.98
2023-05-12T00:59:26.986Z,39.03
2023-05-12T01:01:58.213Z,39.06
2023-05-12T01:04:29.918Z,39.03
2023-05-12T01:07:05.775Z,39.15
2023-05-12T01:09:36.563Z,39.10
2023-05-12T01:12:08.260Z,39.19
2023-05-12T01:14:37.454Z,39.33
2023-05-12T01:17:13.169Z,39.29
2023-05-12T01:19:49.286Z,39.33
2023-05-12T01:22:20.918Z,39.40
2023-05-12T01:24:55.114Z,39.45
2023-05-12T01:27:27.595Z,39.34
2023-05-12T01:30:01.944Z,39.51
2023-05-12T01:32:36.520Z,39.54
2023-05-12T01:35:09.293Z,39.62
2023-05-12T01:37:41.694Z,39.64
2023-05-12T01:40:13.090Z,39.61
2023-05-12T01:42:44.749Z,39.65
2023-05-12T01:45:16.273Z,39.66
2023-05-12T01:47:47.017Z,39.70
2023-05-12T01:50:18.198Z,39.84
2023-05-12T01:52:49.217Z,39.84
2023-05-12T01:55:21.648Z,39.77
2023-05-12T01:57:55.895Z,39.90
2023-05-12T02:00:27.363Z,39.99
2023-05-12T02:02:58.051Z,40.04
2023-05-12T02:05:28.686Z,40.06
2023-05-12T02:07:59.518Z,40.04
2023-05-12T02:10:30.390Z,40.23
2023-05-12T02:13:00.986Z,40.22
2023-05-12T02:15:32.072Z,40.24
2023-05-12T02:18:03.848Z,40.24
2023-05-12T02:20:34.620Z,40.33
2023-05-12T02:23:06.177Z,40.42
2023-05-12T02:25:36.865Z,40.48
2023-05-12T02:28:10.878Z,40.48
2023-05-12T02:30:45.819Z,40.57
2023-05-12T02:33:17.256Z,40.67
2023-05-12T02:35:48.562Z,40.61
2023-05-12T02:38:19.473Z,40.88
2023-05-12T02:40:50.285Z,40.93
2023-05-12T02:43:20.987Z,40.91
2023-05-12T02:45:51.816Z,41.01
2023-05-12T02:48:22.269Z,41.02
2023-05-12T02:50:52.711Z,41.25
2023-05-12T02:53:23.224Z,41.28
2023-05-12T02:55:53.865Z,41.22
2023-05-12T02:58:24.716Z,41.46
2023-05-12T03:01:03.349Z,41.53
2023-05-12T03:03:40.715Z,41.55
2023-05-12T03:06:12.352Z,41.40
2023-05-12T03:08:43.014Z,41.80
2023-05-12T03:11:13.693Z,41.81
2023-05-12T03:13:44.256Z,41.84
2023-05-12T03:16:18.907Z,41.92
2023-05-12T03:18:50.333Z,41.70
2023-05-12T03:21:20.916Z,41.88
2023-05-12T03:23:52.794Z,41.83
2023-05-12T03:26:23.489Z,41.92
2023-05-12T03:28:54.144Z,41.78
2023-05-12T03:31:24.692Z,41.87
2023-05-12T03:33:55.153Z,41.95
2023-05-12T03:36:25.653Z,41.97
2023-05-12T03:38:56.277Z,41.99
2023-05-12T03:41:26.769Z,42.07
2023-05-12T03:43:57.320Z,41.94
2023-05-12T03:46:27.942Z,41.78
2023-05-12T03:48:58.734Z,41.95
2023-05-12T03:51:29.341Z,42.00
2023-05-12T03:53:59.880Z,42.09
2023-05-12T03:56:30.465Z,42.06
2023-05-12T03:59:00.875Z,42.01
2023-05-12T04:01:31.822Z,42.09
2023-05-12T04:04:04.583Z,42.03
2023-05-12T04:06:36.647Z,42.03
2023-05-12T04:09:07.212Z,42.15
2023-05-12T04:11:39.695Z,42.32
2023-05-12T04:14:10.178Z,42.22
2023-05-12T04:16:40.888Z,42.31
2023-05-12T04:19:11.543Z,42.31
2023-05-12T04:21:41.996Z,42.48
2023-05-12T04:24:12.768Z,42.53
2023-05-12T04:26:43.259Z,42.52
2023-05-12T04:29:15.833Z,42.42
2023-05-12T04:31:46.394Z,42.70
2023-05-12T04:34:18.001Z,42.72
2023-05-12T04:36:48.622Z,42.51
2023-05-12T04:39:19.160Z,42.46
2023-05-12T04:41:49.791Z,42.43
2023-05-12T04:44:22.140Z,42.58
2023-05-12T04:46:56.385Z,42.47
2023-05-12T04:49:27.243Z,42.45
2023-05-12T04:51:57.742Z,42.51
2023-05-12T04:54:28.429Z,42.53
2023-05-12T04:56:59.596Z,42.62
2023-05-12T04:59:31.860Z,42.52
2023-05-12T05:02:02.396Z,42.84
2023-05-12T05:04:33.643Z,42.66
2023-05-12T05:07:04.368Z,42.68
2023-05-12T05:09:36.426Z,42.77
2023-05-12T05:12:08.711Z,42.87
2023-05-12T05:14:40.256Z,42.89
2023-05-12T05:17:12.219Z,42.87
2023-05-12T05:19:54.815Z,42.84
2023-05-12T05:22:29.374Z,42.93
2023-05-12T05:24:59.796Z,43.02
2023-05-12T05:27:30.390Z,43.94
2023-05-12T05:30:00.888Z,44.00
2023-05-12T05:32:31.731Z,43.89
2023-05-12T05:35:03.892Z,44.06
2023-05-12T05:37:36.252Z,44.00
2023-05-12T05:40:09.294Z,43.97
2023-05-12T05:42:39.885Z,43.76
2023-05-12T05:45:12.393Z,43.71
2023-05-12T05:47:43.151Z,43.78
2023-05-12T05:50:14.382Z,43.64
2023-05-12T05:52:44.296Z,43.75
2023-05-12T05:55:14.901Z,43.86
2023-05-12T05:57:45.453Z,43.59
2023-05-12T06:00:18.993Z,43.71
2023-05-12T06:02:50.940Z,43.79
2023-05-12T06:05:27.490Z,44.06
2023-05-12T06:07:58.049Z,44.01
2023-05-12T06:10:29.395Z,43.91
2023-05-12T06:12:59.869Z,44.08
2023-05-12T06:15:30.328Z,43.92
2023-05-12T06:18:00.802Z,43.84
2023-05-12T06:20:31.365Z,44.16
2023-05-12T06:23:02.013Z,44.26
2023-05-12T06:25:33.598Z,44.23
2023-05-12T06:28:04.764Z,44.06
2023-05-12T06:30:35.352Z,43.61
2023-05-12T06:33:06.027Z,43.57
2023-05-12T06:35:36.572Z,43.52
2023-05-12T06:38:09.447Z,43.63
2023-05-12T06:40:40.256Z,43.59
2023-05-12T06:43:10.724Z,43.61
2023-05-12T06:45:41.238Z,43.71
2023-05-12T06:48:12.230Z,43.70
2023-05-12T06:50:43.290Z,43.63
2023-05-12T06:53:13.743Z,43.52
2023-05-12T06:55:44.460Z,43.64
2023-05-12T06:58:15.124Z,43.86
2023-05-12T07:00:45.903Z,43.85
2023-05-12T07:03:16.533Z,44.01
2023-05-12T07:05:47.224Z,43.94
2023-05-12T07:08:17.960Z,43.73
2023-05-12T07:10:48.429Z,43.72
2023-05-12T07:13:19.050Z,43.65
2023-05-12T07:15:50.164Z,43.39
2023-05-12T07:18:20.737Z,43.22
2023-05-12T07:20:51.274Z,43.27
2023-05-12T07:23:21.834Z,43.27
2023-05-12T07:25:52.310Z,43.49
2023-05-12T07:28:22.899Z,43.29
2023-05-12T07:30:53.434Z,43.37
2023-05-12T07:33:23.985Z,43.45
2023-05-12T07:35:54.592Z,43.29
2023-05-12T07:38:25.162Z,43.17
2023-05-12T07:40:55.766Z,43.22
2023-05-12T07:43:27.740Z,43.13
2023-05-12T07:45:59.347Z,43.22
2023-05-12T07:48:30.009Z,43.40
2023-05-12T07:51:00.546Z,43.26
2023-05-12T07:53:31.036Z,42.90
2023-05-12T07:56:01.533Z,43.00
2023-05-12T07:58:32.003Z,43.02
2023-05-12T08:01:06.118Z,42.90
2023-05-12T08:03:37.575Z,43.15
2023-05-12T08:06:08.417Z,42.89
2023-05-12T08:08:38.938Z,42.88
2023-05-12T08:11:09.407Z,43.00
2023-05-12T08:13:40.246Z,42.94
2023-05-12T08:16:11.148Z,42.47
2023-05-12T08:18:41.695Z,42.39
2023-05-12T08:21:12.231Z,42.63
2023-05-12T08:23:42.727Z,42.34
2023-05-12T08:26:13.202Z,42.19
2023-05-12T08:28:43.666Z,42.19
2023-05-12T08:31:14.396Z,42.42
2023-05-12T08:33:45.033Z,42.28
2023-05-12T08:36:15.625Z,42.21
2023-05-12T08:38:46.124Z,42.25
2023-05-12T08:41:21.966Z,42.47
2023-05-12T08:43:54.302Z,42.28
2023-05-12T08:46:26.820Z,42.22
2023-05-12T08:48:59.836Z,42.62
2023-05-12T08:51:32.742Z,42.91
2023-05-12T08:54:04.849Z,43.00
2023-05-12T08:59:11.051Z,43.35
2023-05-12T09:01:43.116Z,43.20
2023-05-12T09:04:15.374Z,43.34
2023-05-12T09:06:46.415Z,43.38
2023-05-12T09:09:17.994Z,43.43
2023-05-12T09:11:52.003Z,43.02
2023-05-12T09:14:25.888Z,42.90
2023-05-12T09:17:01.498Z,42.99
2023-05-12T09:19:32.678Z,43.16
2023-05-12T09:22:03.198Z,43.04
2023-05-12T09:24:43.068Z,42.96
2023-05-12T09:27:13.565Z,43.06
2023-05-12T09:29:58.613Z,43.66
2023-05-12T09:32:37.565Z,43.61
2023-05-12T09:35:12.057Z,43.19
2023-05-12T09:37:42.578Z,43.58
2023-05-12T09:40:14.405Z,44.39
2023-05-12T09:42:45.259Z,43.92
2023-05-12T09:45:16.916Z,43.67
2023-05-12T09:47:47.749Z,42.87
2023-05-12T09:50:18.911Z,42.86
2023-05-12T09:52:52.089Z,42.98
2023-05-12T09:55:23.861Z,42.75
2023-05-12T09:57:55.618Z,42.54
2023-05-12T10:00:38.589Z,42.30
2023-05-12T10:03:14.993Z,42.56
2023-05-12T10:05:50.441Z,42.47
2023-05-12T10:08:27.617Z,42.07
2023-05-12T10:11:00.845Z,41.78
2023-05-12T10:13:32.222Z,41.73
2023-05-12T10:16:03.839Z,41.19
2023-05-12T10:18:36.063Z,41.18
2023-05-12T10:21:08.199Z,41.45
2023-05-12T10:23:41.222Z,41.38
2023-05-12T10:26:12.497Z,41.30
2023-05-12T10:28:43.923Z,40.74
2023-05-12T10:31:16.015Z,40.19
2023-05-12T10:33:56.447Z,39.35
2023-05-12T10:36:27.325Z,39.46
2023-05-12T10:39:05.723Z,39.23
2023-05-12T10:41:37.482Z,38.84
2023-05-12T10:44:09.242Z,38.78
2023-05-12T10:46:39.851Z,38.91
2023-05-12T10:49:13.385Z,38.54
2023-05-12T10:51:50.909Z,37.83
2023-05-12T10:54:26.992Z,37.15
2023-05-12T10:57:02.322Z,36.51
2023-05-12T10:59:33.281Z,36.76
2023-05-12T11:02:07.866Z,37.02
2023-05-12T11:04:43.814Z,37.22
2023-05-12T11:07:16.818Z,37.72
2023-05-12T11:09:56.715Z,36.95
2023-05-12T11:12:33.053Z,36.75
2023-05-12T11:15:05.621Z,36.16
2023-05-12T11:17:38.951Z,35.59
2023-05-12T11:20:11.092Z,35.33
2023-05-12T11:22:44.325Z,35.41
2023-05-12T11:25:16.446Z,35.42
2023-05-12T11:27:51.368Z,35.37
2023-05-12T11:30:21.961Z,35.39
2023-05-12T11:33:02.699Z,35.41
2023-05-12T11:35:34.505Z,35.36
2023-05-12T11:38:15.663Z,35.20
2023-05-12T11:40:46.747Z,35.56
2023-05-12T11:43:22.802Z,35.63
2023-05-12T11:45:55.590Z,36.12
2023-05-12T11:48:36.047Z,36.07
2023-05-12T11:51:06.564Z,35.65
2023-05-12T11:53:42.500Z,35.47
2023-05-12T11:56:21.711Z,35.48
2023-05-12T11:58:59.661Z,35.32
2023-05-12T12:01:28.608Z,35.21
2023-05-12T12:03:59.140Z,35.24
2023-05-12T12:06:29.741Z,35.65
2023-05-12T12:09:01.090Z,35.90
2023-05-12T12:11:32.296Z,35.67
2023-05-12T12:14:03.852Z,35.70
2023-05-12T12:16:34.779Z,35.39
2023-05-12T12:19:09.144Z,35.30
2023-05-12T12:21:39.848Z,35.49
2023-05-12T12:24:10.728Z,35.57
2023-05-12T12:26:41.314Z,35.17
2023-05-12T12:29:11.848Z,35.56
2023-05-12T12:31:42.328Z,35.58
2023-05-12T12:34:13.123Z,35.54
2023-05-12T12:36:43.656Z,34.96
2023-05-12T12:39:14.694Z,35.68
2023-05-12T12:41:48.149Z,35.58
2023-05-12T12:44:18.784Z,35.43
2023-05-12T12:46:49.458Z,35.26
2023-05-12T12:49:20.065Z,35.39
2023-05-12T12:51:50.906Z,35.71
2023-05-12T12:54:21.436Z,35.65
2023-05-12T12:56:52.175Z,35.41
2023-05-12T12:59:23.539Z,35.47
2023-05-12T13:01:54.444Z,35.47
2023-05-12T13:04:25.308Z,35.48
2023-05-12T13:06:55.931Z,35.38
2023-05-12T13:09:26.560Z,35.19
2023-05-12T13:11:58.123Z,34.71
2023-05-12T13:14:27.213Z,34.64
2023-05-12T13:16:57.732Z,34.56
2023-05-12T13:19:28.474Z,34.35
2023-05-12T13:21:59.107Z,34.01
2023-05-12T13:24:29.940Z,34.14
2023-05-12T13:27:00.432Z,34.50
2023-05-12T13:29:30.967Z,34.41
2023-05-12T13:32:01.639Z,34.14
2023-05-12T13:34:32.783Z,34.08
2023-05-12T13:37:03.606Z,33.93
2023-05-12T13:39:35.711Z,33.94
2023-05-12T13:42:07.105Z,33.97
2023-05-12T13:44:37.857Z,33.50
2023-05-12T13:47:10.457Z,33.04
2023-05-12T13:49:40.940Z,33.33
2023-05-12T13:52:11.458Z,33.56
2023-05-12T13:54:41.995Z,33.76
2023-05-12T13:57:12.451Z,33.64
2023-05-12T13:59:42.991Z,33.79
2023-05-12T14:02:14.548Z,34.00
2023-05-12T14:04:45.103Z,34.05
2023-05-12T14:07:15.725Z,33.89
2023-05-12T14:09:46.175Z,33.06
2023-05-12T14:12:17.187Z,33.34
2023-05-12T14:14:50.100Z,33.19
2023-05-12T14:17:20.746Z,33.22
2023-05-12T14:19:51.185Z,32.86
2023-05-12T14:22:26.469Z,33.10
2023-05-12T14:24:57.417Z,32.45
2023-05-12T14:27:29.026Z,32.68
2023-05-12T14:29:59.604Z,32.64
2023-05-12T14:32:30.248Z,32.74
2023-05-12T14:35:00.950Z,32.91
2023-05-12T14:37:31.583Z,32.87
2023-05-12T14:40:02.025Z,32.78
2023-05-12T14:42:32.625Z,32.72
2023-05-12T14:45:03.603Z,32.57
2023-05-12T14:47:34.133Z,32.33
2023-05-12T14:50:04.804Z,32.62
2023-05-12T14:52:38.373Z,32.70
2023-05-12T14:55:12.523Z,32.73
2023-05-12T14:57:44.322Z,32.34
2023-05-12T15:00:16.689Z,32.34
2023-05-12T15:02:47.907Z,32.33
2023-05-12T15:05:18.735Z,32.38
2023-05-12T15:07:49.391Z,32.45
2023-05-12T15:10:20.042Z,32.27
2023-05-12T15:12:50.492Z,32.36
2023-05-12T15:15:21.160Z,32.12
2023-05-12T15:17:53.055Z,31.74
2023-05-12T15:20:22.088Z,31.59
2023-05-12T15:22:54.337Z,31.83
2023-05-12T15:25:24.826Z,31.92
2023-05-12T15:27:55.360Z,31.86
2023-05-12T15:30:25.886Z,31.67
2023-05-12T15:32:57.519Z,31.64
2023-05-12T15:35:28.462Z,31.55
2023-05-12T15:37:59.289Z,31.65
2023-05-12T15:40:31.019Z,31.29
2023-05-12T15:43:05.053Z,30.92
2023-05-12T15:45:37.326Z,30.58
2023-05-12T15:48:09.689Z,30.21
2023-05-12T15:59:13.510Z,30.47
2023-05-12T16:01:44.121Z,30.54
2023-05-12T16:04:14.907Z,30.54
2023-05-12T16:06:46.066Z,30.44
2023-05-12T16:09:16.619Z,30.42
2023-05-12T16:16:49.154Z,30.47
2023-05-12T16:19:20.064Z,30.04
2023-05-12T16:21:50.669Z,30.31
2023-05-12T16:24:21.194Z,30.24
2023-05-12T16:26:52.139Z,29.98
2023-05-12T16:29:22.662Z,29.79
2023-05-12T16:31:53.789Z,29.72
2023-05-12T16:34:25.091Z,29.82
2023-05-12T16:36:55.595Z,30.02
2023-05-12T16:39:26.214Z,30.13
2023-05-12T16:41:56.680Z,30.21
2023-05-12T16:44:27.379Z,30.12
2023-05-12T16:46:57.833Z,30.17
2023-05-12T16:49:28.432Z,30.41
2023-05-12T16:51:58.943Z,30.59
2023-05-12T16:54:31.700Z,30.62
2023-05-12T16:57:03.149Z,30.77
2023-05-12T16:59:33.733Z,30.99
2023-05-12T17:02:04.358Z,31.12
2023-05-12T17:04:35.099Z,31.29
2023-05-12T17:07:05.852Z,31.21
2023-05-12T17:09:36.470Z,31.24
2023-05-12T17:12:08.626Z,31.36
2023-05-12T17:14:39.169Z,31.35
2023-05-12T17:17:09.800Z,31.32
2023-05-12T17:19:42.149Z,31.12
2023-05-12T17:22:12.761Z,30.90
2023-05-12T17:24:43.251Z,31.08
2023-05-12T17:27:13.760Z,30.97
2023-05-12T17:29:44.504Z,30.87
2023-05-12T17:32:14.993Z,30.85
2023-05-12T17:34:45.770Z,30.85
2023-05-12T17:37:16.437Z,30.98
2023-05-12T17:39:46.986Z,30.74
2023-05-12T17:42:18.242Z,30.68
2023-05-12T17:44:48.796Z,30.57
2023-05-12T17:47:19.328Z,30.50
2023-05-12T17:49:49.922Z,30.57
2023-05-12T17:52:20.894Z,30.52
2023-05-12T17:54:54.888Z,30.35
2023-05-12T17:57:25.521Z,30.40
2023-05-12T17:59:56.609Z,30.38
2023-05-12T18:02:27.408Z,30.35
2023-05-12T18:04:58.182Z,30.17
2023-05-12T18:07:28.672Z,30.33
2023-05-12T18:09:59.161Z,30.28
2023-05-12T18:12:29.872Z,30.31
2023-05-12T18:15:00.412Z,30.34
2023-05-12T18:17:31.096Z,30.33
2023-05-12T18:20:01.688Z,30.39
2023-05-12T18:22:32.321Z,30.26
2023-05-12T18:25:02.847Z,30.27
2023-05-12T18:27:33.495Z,30.27
2023-05-12T18:30:03.980Z,30.20
2023-05-12T18:32:34.520Z,30.33
2023-05-12T18:35:05.274Z,30.36
2023-05-12T18:37:36.018Z,30.37
2023-05-12T18:40:07.689Z,30.42
2023-05-12T18:42:36.615Z,30.50
2023-05-12T18:45:09.243Z,30.68
2023-05-12T18:47:40.007Z,30.82
2023-05-12T18:50:12.115Z,30.85
2023-05-12T18:52:43.895Z,30.77
2023-05-12T18:55:15.344Z,30.89
2023-05-12T18:57:45.786Z,30.87
2023-05-12T19:00:17.261Z,30.87
2023-05-12T19:02:49.327Z,30.87
2023-05-12T19:05:20.298Z,31.05
2023-05-12T19:07:51.131Z,31.03
2023-05-12T19:10:21.965Z,31.26
2023-05-12T19:12:52.672Z,31.23
2023-05-12T19:15:23.291Z,31.23
2023-05-12T19:17:54.137Z,31.26
2023-05-12T19:20:24.721Z,31.29
2023-05-12T19:22:55.172Z,31.32
2023-05-12T19:25:25.638Z,31.31
2023-05-12T19:27:56.381Z,31.36
2023-05-12T19:30:27.679Z,31.46
2023-05-12T19:32:58.282Z,31.43
2023-05-12T19:35:28.735Z,31.49
2023-05-12T19:37:59.195Z,31.46
2023-05-12T19:40:30.682Z,31.39
2023-05-12T19:43:00.025Z,31.51
2023-05-12T19:45:31.474Z,31.58
2023-05-12T19:48:02.232Z,31.46
2023-05-12T19:50:32.977Z,31.47
2023-05-12T19:53:03.521Z,31.50
2023-05-12T19:55:34.098Z,31.48
2023-05-12T19:58:04.590Z,31.58
2023-05-12T20:00:36.459Z,31.65
2023-05-12T20:03:09.078Z,31.62
2023-05-12T20:05:41.093Z,31.69
2023-05-12T20:08:11.609Z,31.84
2023-05-12T20:10:42.059Z,31.87
2023-05-12T20:13:12.533Z,32.02
2023-05-12T20:15:44.203Z,32.11
2023-05-12T20:18:15.514Z,32.13
2023-05-12T20:20:46.272Z,32.08
2023-05-12T20:23:16.708Z,32.15
2023-05-12T20:25:47.418Z,32.15
2023-05-12T20:28:17.914Z,32.28
2023-05-12T20:30:48.373Z,32.27
2023-05-12T20:33:19.001Z,32.48
2023-05-12T20:35:49.634Z,32.56
2023-05-12T20:38:20.983Z,32.78
2023-05-12T20:40:52.156Z,32.91
2023-05-12T20:43:22.658Z,33.04
2023-05-12T20:45:53.184Z,33.15
2023-05-12T20:48:23.926Z,33.03
2023-05-12T20:50:55.783Z,33.20
2023-05-12T20:53:26.415Z,33.32
2023-05-12T20:55:56.909Z,33.46
2023-05-12T20:58:27.335Z,33.46
2023-05-12T21:00:59.241Z,33.45
2023-05-12T21:03:29.790Z,33.52
2023-05-12T21:06:00.482Z,33.60
2023-05-12T21:08:31.259Z,33.79
2023-05-12T21:11:01.766Z,33.98
2023-05-12T21:13:32.234Z,33.96
2023-05-12T21:16:02.710Z,34.10
2023-05-12T21:18:33.273Z,34.11
2023-05-12T21:21:03.826Z,34.33
2023-05-12T21:23:34.370Z,34.21
2023-05-12T21:26:05.056Z,34.24
2023-05-12T21:28:35.546Z,34.18
2023-05-12T21:31:06.217Z,34.44
2023-05-12T21:33:36.696Z,34.41
2023-05-12T21:36:08.906Z,34.41
2023-05-12T21:38:39.334Z,34.25
2023-05-12T21:41:09.840Z,34.31
2023-05-12T21:43:40.477Z,34.39
2023-05-12T21:46:11.005Z,34.31
2023-05-12T21:48:41.488Z,34.42
2023-05-12T21:51:12.040Z,34.42
2023-05-12T21:53:42.997Z,34.50
2023-05-12T21:56:14.264Z,34.62
2023-05-12T21:58:44.797Z,34.58
2023-05-12T22:01:15.783Z,34.52
2023-05-12T22:03:46.892Z,34.58
2023-05-12T22:06:17.625Z,34.52
2023-05-12T22:08:48.245Z,34.67
2023-05-12T22:11:19.195Z,34.80
2023-05-12T22:13:49.658Z,34.72
2023-05-12T22:16:25.766Z,34.77
2023-05-12T22:18:59.216Z,34.85
2023-05-12T22:21:29.912Z,34.90
2023-05-12T22:24:00.445Z,34.83
2023-05-12T22:26:30.974Z,34.94
2023-05-12T22:29:01.926Z,34.99
2023-05-12T22:31:32.508Z,35.07
2023-05-12T22:34:03.038Z,35.14
2023-05-12T22:36:34.036Z,35.16
2023-05-12T22:39:04.930Z,35.04
2023-05-12T22:41:36.403Z,35.22
2023-05-12T22:44:07.635Z,35.18
2023-05-12T22:46:38.193Z,35.26
2023-05-12T22:49:08.711Z,35.33
2023-05-12T22:51:39.186Z,35.39
2023-05-12T22:54:09.631Z,35.68
2023-05-12T22:56:40.078Z,35.69
2023-05-12T22:59:10.518Z,35.65
2023-05-12T23:01:41.059Z,35.64
2023-05-12T23:04:11.707Z,35.69
2023-05-12T23:06:42.158Z,35.80
2023-05-12T23:09:12.931Z,35.77
2023-05-12T23:11:43.357Z,35.90
2023-05-12T23:14:13.870Z,36.01
2023-05-12T23:16:44.416Z,35.95
2023-05-12T23:19:15.171Z,36.07
2023-05-12T23:21:45.776Z,36.15
2023-05-12T23:24:16.279Z,36.12
2023-05-12T23:26:46.733Z,36.04
2023-05-12T23:29:17.288Z,36.07
2023-05-12T23:31:47.738Z,36.11
2023-05-12T23:34:18.324Z,36.03
2023-05-12T23:36:48.874Z,36.04
2023-05-12T23:39:19.590Z,36.20
2023-05-12T23:41:50.661Z,36.26
2023-05-12T23:44:21.290Z,36.28
2023-05-12T23:46:52.356Z,36.38
2023-05-12T23:49:22.918Z,36.50
2023-05-12T23:51:53.415Z,36.56
2023-05-12T23:54:24.024Z,36.57
2023-05-12T23:56:54.452Z,36.62
2023-05-12T23:59:24.910Z,36.66
